createdAt,value
2018-02-14T00:02:06.937Z,8.70
2018-02-14T00:04:34.397Z,9.43
2018-02-14T00:07:01.870Z,8.43
2018-02-14T00:09:29.326Z,8.60
2018-02-14T00:11:56.794Z,9.43
2018-02-14T00:14:24.279Z,9.20
2018-02-14T00:16:52.514Z,7.73
2018-02-14T00:19:19.987Z,10.17
2018-02-14T00:21:47.461Z,10.50
2018-02-14T00:24:15.707Z,8.40
2018-02-14T00:26:43.204Z,8.10
2018-02-14T00:29:11.450Z,8.00
2018-02-14T00:31:38.914Z,8.47
2018-02-14T00:34:06.413Z,7.97
2018-02-14T00:36:33.898Z,8.43
2018-02-14T00:39:01.403Z,8.47
2018-02-14T00:41:28.858Z,9.13
2018-02-14T00:43:56.341Z,7.60
2018-02-14T00:46:24.592Z,8.77
2018-02-14T00:48:52.066Z,8.00
2018-02-14T00:51:20.585Z,8.10
2018-02-14T00:53:48.061Z,7.13
2018-02-14T00:56:15.542Z,9.23
2018-02-14T00:58:43.003Z,7.67
2018-02-14T01:01:10.478Z,7.50
2018-02-14T01:03:37.986Z,8.20
2018-02-14T01:06:05.463Z,9.07
2018-02-14T01:08:32.944Z,9.47
2018-02-14T01:11:00.413Z,10.70
2018-02-14T01:13:28.675Z,9.37
2018-02-14T01:15:56.150Z,7.80
2018-02-14T01:18:24.458Z,8.17
2018-02-14T01:20:51.922Z,9.13
2018-02-14T01:23:19.396Z,9.83
2018-02-14T01:25:46.880Z,9.90
2018-02-14T01:28:14.337Z,9.10
2018-02-14T01:30:41.822Z,9.77
2018-02-14T01:33:10.053Z,8.90
2018-02-14T01:35:37.562Z,9.20
2018-02-14T01:38:05.041Z,10.03
2018-02-14T01:40:32.508Z,9.17
2018-02-14T01:42:59.991Z,10.13
2018-02-14T01:45:27.489Z,10.37
2018-02-14T01:47:55.754Z,9.10
2018-02-14T01:53:17.556Z,9.13
2018-02-14T01:55:45.043Z,9.83
2018-02-14T01:58:12.545Z,9.73
2018-02-14T02:00:40.037Z,11.93
2018-02-14T02:03:07.509Z,10.13
2018-02-14T02:05:34.995Z,12.27
2018-02-14T02:08:03.256Z,10.40
2018-02-14T02:10:31.115Z,12.23
2018-02-14T02:12:58.609Z,9.97
2018-02-14T02:15:26.099Z,10.00
2018-02-14T02:17:53.598Z,10.13
2018-02-14T02:20:21.091Z,10.27
2018-02-14T02:22:49.337Z,10.80
2018-02-14T02:25:16.822Z,12.00
2018-02-14T02:27:45.091Z,11.10
2018-02-14T02:30:13.346Z,10.40
2018-02-14T02:32:40.882Z,11.53
2018-02-14T02:35:08.350Z,10.80
2018-02-14T02:37:35.835Z,10.13
2018-02-14T02:40:16.032Z,10.30
2018-02-14T02:42:43.509Z,9.33
2018-02-14T02:45:11.005Z,9.87
2018-02-14T02:47:38.503Z,9.40
2018-02-14T02:50:06.034Z,11.80
2018-02-14T02:52:33.519Z,8.80
2018-02-14T02:55:01.011Z,10.77
2018-02-14T02:57:28.505Z,9.87
2018-02-14T02:59:55.986Z,11.90
2018-02-14T03:02:24.243Z,10.03
2018-02-14T03:04:51.737Z,10.80
2018-02-14T03:07:19.224Z,10.80
2018-02-14T03:09:46.701Z,10.40
2018-02-14T03:12:14.189Z,10.63
2018-02-14T03:14:42.429Z,10.70
2018-02-14T03:17:09.925Z,9.90
2018-02-14T03:19:38.177Z,11.40
2018-02-14T03:22:05.698Z,11.70
2018-02-14T03:24:33.181Z,10.53
2018-02-14T03:27:00.688Z,10.33
2018-02-14T03:29:28.923Z,12.07
2018-02-14T03:31:56.405Z,10.30
2018-02-14T03:34:24.659Z,10.93
2018-02-14T03:36:53.657Z,11.50
2018-02-14T03:39:21.137Z,10.07
2018-02-14T03:41:49.389Z,11.50
2018-02-14T03:44:16.861Z,11.03
2018-02-14T03:46:45.138Z,10.53
2018-02-14T03:49:12.610Z,10.37
2018-02-14T03:51:40.938Z,9.63
2018-02-14T03:54:08.411Z,10.50
2018-02-14T03:56:35.894Z,11.40
2018-02-14T03:59:03.377Z,11.40
2018-02-14T04:01:30.855Z,11.23
2018-02-14T04:03:58.342Z,12.80
2018-02-14T04:06:25.832Z,12.20
2018-02-14T04:08:54.089Z,11.67
2018-02-14T04:11:21.568Z,11.53
2018-02-14T04:13:49.851Z,11.57
2018-02-14T04:16:18.091Z,12.40
2018-02-14T04:18:45.616Z,12.10
2018-02-14T04:21:13.107Z,14.30
2018-02-14T04:23:40.620Z,14.47
2018-02-14T04:26:08.114Z,11.73
2018-02-14T04:28:35.606Z,11.77
2018-02-14T04:31:03.090Z,13.27
2018-02-14T04:33:31.357Z,13.07
2018-02-14T04:35:59.621Z,13.23
2018-02-14T04:38:28.073Z,13.67
2018-02-14T04:40:55.565Z,13.60
2018-02-14T04:43:23.831Z,13.07
2018-02-14T04:45:51.341Z,19.57
2018-02-14T04:48:18.817Z,14.40
2018-02-14T04:50:46.298Z,13.77
2018-02-14T04:53:13.778Z,11.60
2018-02-14T04:55:42.022Z,12.30
2018-02-14T04:58:09.517Z,14.13
2018-02-14T05:00:37.805Z,14.87
2018-02-14T05:03:06.054Z,13.70
2018-02-14T05:05:33.542Z,11.77
2018-02-14T05:08:01.048Z,12.20
2018-02-14T05:10:28.531Z,13.03
2018-02-14T05:12:56.258Z,12.90
2018-02-14T05:15:25.062Z,15.80
2018-02-14T05:17:52.558Z,13.13
2018-02-14T05:20:20.822Z,13.00
2018-02-14T05:22:48.314Z,13.97
2018-02-14T05:25:15.845Z,12.63
2018-02-14T05:27:44.170Z,13.80
2018-02-14T05:30:11.661Z,13.60
2018-02-14T05:32:39.191Z,14.00
2018-02-14T05:35:06.696Z,12.00
2018-02-14T05:37:34.202Z,13.67
2018-02-14T05:40:02.637Z,11.67
2018-02-14T05:42:30.138Z,12.93
2018-02-14T05:44:58.370Z,12.40
2018-02-14T05:47:25.918Z,12.53
2018-02-14T05:49:53.390Z,12.10
2018-02-14T05:52:20.894Z,11.20
2018-02-14T05:54:48.376Z,13.53
2018-02-14T05:57:16.253Z,12.97
2018-02-14T05:59:43.730Z,13.03
2018-02-14T06:02:11.229Z,11.30
2018-02-14T06:04:38.728Z,12.17
2018-02-14T06:07:06.201Z,11.67
2018-02-14T06:09:33.716Z,12.40
2018-02-14T06:12:01.196Z,14.23
2018-02-14T06:14:28.690Z,12.53
2018-02-14T06:16:56.941Z,11.90
2018-02-14T06:19:24.425Z,13.33
2018-02-14T06:21:51.933Z,13.70
2018-02-14T06:24:19.438Z,14.63
2018-02-14T06:26:46.959Z,13.67
2018-02-14T06:29:14.475Z,14.30
2018-02-14T06:31:42.726Z,13.83
2018-02-14T06:34:10.218Z,12.93
2018-02-14T06:36:38.466Z,13.00
2018-02-14T06:39:07.466Z,12.60
2018-02-14T06:41:35.015Z,14.07
2018-02-14T06:44:02.537Z,13.63
2018-02-14T06:46:30.030Z,14.63
2018-02-14T06:48:57.543Z,14.47
2018-02-14T06:51:25.024Z,14.77
2018-02-14T06:53:52.510Z,16.50
2018-02-14T06:56:20.108Z,15.40
2018-02-14T06:58:47.713Z,14.70
2018-02-14T07:01:15.199Z,16.07
2018-02-14T07:03:42.679Z,15.33
2018-02-14T07:06:10.959Z,14.90
2018-02-14T07:08:39.208Z,14.80
2018-02-14T07:11:06.698Z,14.83
2018-02-14T07:13:34.945Z,17.77
2018-02-14T07:16:02.459Z,18.13
2018-02-14T07:18:29.950Z,17.73
2018-02-14T07:20:57.431Z,16.50
2018-02-14T07:23:30.931Z,17.70
2018-02-14T07:25:59.174Z,19.47
2018-02-14T07:28:26.689Z,17.90
2018-02-14T07:30:54.177Z,19.37
2018-02-14T07:33:21.658Z,20.47
2018-02-14T07:35:49.154Z,18.97
2018-02-14T07:38:17.438Z,19.43
2018-02-14T07:40:45.682Z,21.53
2018-02-14T07:43:13.163Z,22.20
2018-02-14T07:45:41.446Z,25.37
2018-02-14T07:48:09.702Z,23.33
2018-02-14T07:50:37.189Z,21.40
2018-02-14T07:53:04.681Z,24.10
2018-02-14T07:55:32.193Z,21.87
2018-02-14T07:57:59.678Z,20.63
2018-02-14T08:00:27.162Z,25.60
2018-02-14T08:02:54.648Z,24.40
2018-02-14T08:05:22.138Z,22.20
2018-02-14T08:07:50.384Z,21.53
2018-02-14T08:10:17.899Z,22.77
2018-02-14T08:12:45.495Z,19.77
2018-02-14T08:15:12.986Z,21.47
2018-02-14T08:17:41.239Z,18.10
2018-02-14T08:20:08.750Z,19.20
2018-02-14T08:22:36.254Z,17.77
2018-02-14T08:25:03.740Z,18.50
2018-02-14T08:27:31.979Z,17.20
2018-02-14T08:29:59.474Z,18.03
2018-02-14T08:32:27.705Z,17.20
2018-02-14T08:34:55.193Z,17.87
2018-02-14T08:37:22.688Z,16.70
2018-02-14T08:39:50.184Z,16.97
2018-02-14T08:42:17.651Z,15.30
2018-02-14T08:44:45.149Z,14.83
2018-02-14T08:47:13.640Z,16.30
2018-02-14T08:49:41.148Z,16.40
2018-02-14T08:52:08.650Z,15.80
2018-02-14T08:54:36.890Z,15.70
2018-02-14T08:57:04.380Z,14.57
2018-02-14T08:59:32.636Z,14.43
2018-02-14T09:02:00.179Z,12.90
2018-02-14T09:04:27.651Z,15.57
2018-02-14T09:06:55.162Z,12.87
2018-02-14T09:09:22.633Z,15.53
2018-02-14T09:11:50.156Z,13.20
2018-02-14T09:14:18.693Z,13.47
2018-02-14T09:16:46.180Z,13.57
2018-02-14T09:19:13.729Z,13.90
2018-02-14T09:21:41.257Z,13.93
2018-02-14T09:24:08.767Z,13.97
2018-02-14T09:26:36.529Z,12.23
2018-02-14T09:29:04.026Z,13.57
2018-02-14T09:31:31.520Z,13.43
2018-02-14T09:33:59.038Z,12.67
2018-02-14T09:36:26.587Z,13.20
2018-02-14T09:38:54.847Z,10.77
2018-02-14T09:41:23.194Z,11.00
2018-02-14T09:43:50.894Z,11.07
2018-02-14T09:46:19.392Z,10.73
2018-02-14T09:48:47.644Z,11.83
2018-02-14T09:51:15.339Z,11.80
2018-02-14T09:53:42.818Z,11.83
2018-02-14T09:56:10.360Z,13.20
2018-02-14T09:58:38.010Z,11.80
2018-02-14T10:01:05.522Z,8.93
2018-02-14T10:03:33.040Z,9.20
2018-02-14T10:06:00.658Z,7.53
2018-02-14T10:08:28.147Z,8.37
2018-02-14T10:10:56.398Z,8.60
2018-02-14T10:13:23.929Z,9.50
2018-02-14T10:15:51.517Z,9.03
2018-02-14T10:18:38.855Z,8.77
2018-02-14T10:21:06.362Z,8.93
2018-02-14T10:23:34.043Z,9.03
2018-02-14T10:26:01.966Z,11.27
2018-02-14T10:28:29.560Z,6.17
2018-02-14T10:30:57.066Z,7.20
2018-02-14T10:33:24.642Z,6.63
2018-02-14T10:35:52.122Z,8.63
2018-02-14T10:38:19.602Z,8.43
2018-02-14T10:40:47.085Z,7.80
2018-02-14T10:43:14.583Z,7.93
2018-02-14T10:45:42.079Z,7.13
2018-02-14T10:48:09.772Z,7.63
2018-02-14T10:50:37.339Z,6.40
2018-02-14T10:53:04.845Z,8.00
2018-02-14T10:55:32.915Z,7.27
2018-02-14T10:58:02.459Z,6.30
2018-02-14T11:17:59.522Z,6.50
2018-02-14T11:20:26.993Z,6.47
2018-02-14T11:22:54.453Z,4.93
2018-02-14T11:25:21.908Z,5.40
2018-02-14T11:27:49.368Z,5.20
2018-02-14T11:30:16.849Z,5.87
2018-02-14T11:32:45.077Z,6.70
2018-02-14T11:35:15.048Z,6.07
2018-02-14T11:37:42.509Z,6.00
2018-02-14T11:40:10.421Z,5.33
2018-02-14T11:42:37.860Z,5.53
2018-02-14T11:45:05.325Z,5.67
2018-02-14T11:47:32.767Z,5.97
2018-02-14T11:50:00.271Z,5.30
2018-02-14T11:52:29.232Z,6.33
2018-02-14T11:54:57.501Z,5.27
2018-02-14T11:57:26.908Z,5.77
2018-02-14T11:59:54.393Z,5.33
2018-02-14T12:02:21.867Z,5.10
2018-02-14T12:04:50.075Z,6.57
2018-02-14T12:07:17.584Z,3.80
2018-02-14T12:09:45.070Z,4.57
2018-02-14T12:12:13.646Z,4.90
2018-02-14T12:14:41.871Z,3.47
2018-02-14T12:17:09.376Z,4.97
2018-02-14T12:19:38.046Z,5.10
2018-02-14T12:22:10.498Z,6.17
2018-02-14T12:24:37.954Z,4.20
2018-02-14T12:27:05.437Z,4.07
2018-02-14T12:29:33.799Z,4.60
2018-02-14T12:32:01.261Z,3.60
2018-02-14T12:34:30.356Z,4.40
2018-02-14T12:37:02.680Z,3.93
2018-02-14T12:39:30.212Z,3.60
2018-02-14T12:41:57.673Z,3.37
2018-02-14T12:44:25.157Z,3.93
2018-02-14T12:46:52.606Z,4.03
2018-02-14T12:49:20.065Z,3.53
2018-02-14T12:51:48.353Z,6.43
2018-02-14T12:54:15.803Z,4.73
2018-02-14T12:56:43.252Z,4.60
2018-02-14T12:59:10.705Z,4.43
2018-02-14T13:01:38.203Z,4.50
2018-02-14T13:04:05.665Z,4.60
2018-02-14T13:06:33.158Z,3.30
2018-02-14T13:09:00.580Z,4.37
2018-02-14T13:11:28.041Z,3.77
2018-02-14T13:13:55.504Z,3.80
2018-02-14T13:16:22.980Z,4.03
2018-02-14T13:18:51.919Z,6.20
2018-02-14T13:21:19.401Z,4.03
2018-02-14T13:23:46.861Z,4.50
2018-02-14T13:26:14.302Z,4.40
2018-02-14T13:28:41.764Z,4.33
2018-02-14T13:31:09.244Z,5.20
2018-02-14T13:33:37.481Z,4.67
2018-02-14T13:36:04.933Z,5.43
2018-02-14T13:38:32.387Z,9.20
2018-02-14T13:40:59.872Z,4.87
2018-02-14T13:43:27.325Z,5.47
2018-02-14T13:45:54.815Z,4.80
2018-02-14T13:48:23.025Z,4.10
2018-02-14T13:50:50.495Z,3.73
2018-02-14T13:53:17.951Z,4.43
2018-02-14T13:55:45.404Z,4.23
2018-02-14T13:58:12.872Z,5.23
2018-02-14T14:00:40.332Z,5.70
2018-02-14T14:03:07.822Z,4.50
2018-02-14T14:05:35.298Z,4.80
2018-02-14T14:08:02.740Z,4.80
2018-02-14T14:10:30.225Z,4.87
2018-02-14T14:12:57.688Z,5.03
2018-02-14T14:15:25.165Z,4.93
2018-02-14T14:17:52.617Z,4.80
2018-02-14T14:20:20.098Z,4.50
2018-02-14T14:22:47.587Z,5.63
2018-02-14T14:25:15.521Z,4.60
2018-02-14T14:27:43.036Z,4.87
2018-02-14T14:30:10.495Z,5.37
2018-02-14T14:32:37.971Z,4.17
2018-02-14T14:35:06.214Z,6.00
2018-02-14T14:37:33.723Z,5.47
2018-02-14T14:40:01.947Z,6.17
2018-02-14T14:42:29.410Z,7.43
2018-02-14T14:44:56.901Z,9.07
2018-02-14T14:47:25.146Z,8.70
2018-02-14T14:49:52.628Z,5.53
2018-02-14T14:52:20.273Z,5.80
2018-02-14T14:54:47.805Z,8.47
2018-02-14T14:57:15.274Z,7.53
2018-02-14T14:59:42.734Z,6.77
2018-02-14T15:02:10.200Z,7.37
2018-02-14T15:04:37.715Z,6.77
2018-02-14T15:07:05.191Z,8.00
2018-02-14T15:09:32.766Z,7.60
2018-02-14T15:12:02.098Z,8.10
2018-02-14T15:14:29.564Z,7.27
2018-02-14T15:16:57.066Z,6.90
2018-02-14T15:19:24.573Z,8.37
2018-02-14T15:21:52.071Z,7.73
2018-02-14T15:24:19.557Z,7.20
2018-02-14T15:26:47.198Z,8.70
2018-02-14T15:29:14.708Z,6.70
2018-02-14T15:31:42.171Z,7.80
2018-02-14T15:34:09.626Z,9.33
2018-02-14T15:36:37.157Z,8.63
2018-02-14T15:39:06.980Z,7.50
2018-02-14T15:41:34.490Z,8.67
2018-02-14T15:44:02.732Z,8.13
2018-02-14T15:46:30.210Z,11.13
2018-02-14T15:48:58.448Z,8.60
2018-02-14T15:51:25.926Z,9.67
2018-02-14T15:53:53.382Z,9.80
2018-02-14T15:56:22.380Z,9.90
2018-02-14T15:58:49.835Z,8.67
2018-02-14T16:01:17.293Z,8.80
2018-02-14T16:03:44.776Z,9.10
2018-02-14T16:06:13.062Z,9.20
2018-02-14T16:08:41.314Z,8.80
2018-02-14T16:11:09.757Z,9.50
2018-02-14T16:13:37.225Z,10.50
2018-02-14T16:16:04.681Z,9.47
2018-02-14T16:18:32.221Z,9.20
2018-02-14T16:20:59.697Z,9.80
2018-02-14T16:23:28.061Z,9.90
2018-02-14T16:25:55.525Z,11.20
2018-02-14T16:28:22.997Z,10.40
2018-02-14T16:30:50.541Z,10.50
2018-02-14T16:33:18.013Z,11.40
2018-02-14T16:35:45.486Z,10.20
2018-02-14T16:38:13.004Z,11.90
2018-02-14T16:40:40.468Z,12.13
2018-02-14T16:43:07.936Z,11.80
2018-02-14T16:45:35.423Z,11.50
2018-02-14T16:48:02.936Z,12.43
2018-02-14T16:50:30.943Z,12.83
2018-02-14T16:52:58.406Z,13.17
2018-02-14T16:55:25.874Z,12.83
2018-02-14T16:57:53.350Z,12.77
2018-02-14T17:00:21.616Z,12.40
2018-02-14T17:02:49.071Z,12.40
2018-02-14T17:05:16.526Z,9.77
2018-02-14T17:07:44.014Z,12.20
2018-02-14T17:10:12.246Z,12.47
2018-02-14T17:12:40.314Z,10.97
2018-02-14T17:15:08.604Z,14.80
2018-02-14T17:17:36.084Z,15.27
2018-02-14T17:20:04.330Z,15.27
2018-02-14T17:22:31.799Z,17.07
2018-02-14T17:24:59.257Z,13.50
2018-02-14T17:27:26.733Z,10.80
2018-02-14T17:29:54.210Z,11.87
2018-02-14T17:32:22.439Z,11.13
2018-02-14T17:34:49.900Z,11.50
2018-02-14T17:37:17.370Z,9.10
2018-02-14T17:39:44.840Z,10.20
2018-02-14T17:42:12.357Z,10.73
2018-02-14T17:44:39.848Z,10.87
2018-02-14T17:47:07.351Z,8.87
2018-02-14T17:49:34.816Z,8.87
2018-02-14T17:52:02.288Z,10.20
2018-02-14T17:54:29.789Z,10.53
2018-02-14T17:56:57.251Z,9.67
2018-02-14T17:59:25.533Z,10.40
2018-02-14T18:01:53.172Z,10.90
2018-02-14T18:04:20.710Z,10.17
2018-02-14T18:06:48.164Z,11.63
2018-02-14T18:09:15.646Z,11.67
2018-02-14T18:11:43.114Z,10.20
2018-02-14T18:14:10.590Z,9.70
2018-02-14T18:16:38.042Z,9.53
2018-02-14T18:19:05.563Z,10.73
2018-02-14T18:21:33.021Z,10.13
2018-02-14T18:24:00.486Z,9.43
2018-02-14T18:26:28.009Z,12.17
2018-02-14T18:28:55.476Z,10.43
2018-02-14T18:31:23.002Z,10.40
2018-02-14T18:33:51.334Z,10.00
2018-02-14T18:36:18.793Z,10.27
2018-02-14T18:38:46.267Z,11.37
2018-02-14T18:41:13.773Z,10.80
2018-02-14T18:43:41.268Z,12.00
2018-02-14T18:46:08.842Z,12.97
2018-02-14T18:48:36.315Z,11.63
2018-02-14T18:51:03.783Z,12.07
2018-02-14T18:53:31.253Z,11.87
2018-02-14T18:55:59.512Z,13.40
2018-02-14T18:58:26.978Z,12.00
2018-02-14T19:00:55.335Z,11.20
2018-02-14T19:03:22.828Z,12.77
2018-02-14T19:05:51.048Z,11.33
2018-02-14T19:08:18.545Z,14.10
2018-02-14T19:10:46.821Z,14.00
2018-02-14T19:13:14.435Z,12.33
2018-02-14T19:15:41.901Z,12.90
2018-02-14T19:18:09.379Z,13.47
2018-02-14T19:20:36.895Z,11.20
2018-02-14T19:23:04.370Z,14.47
2018-02-14T19:25:34.660Z,14.17
2018-02-14T19:28:02.652Z,12.20
2018-02-14T19:30:32.640Z,10.80
2018-02-14T19:33:00.199Z,12.67
2018-02-14T19:35:28.679Z,11.27
2018-02-14T19:37:56.314Z,14.07
2018-02-14T19:40:23.841Z,9.20
2018-02-14T19:42:58.612Z,11.10
2018-02-14T19:45:27.093Z,10.20
2018-02-14T19:47:54.565Z,9.73
2018-02-14T19:50:22.062Z,9.20
2018-02-14T19:52:49.564Z,10.30
2018-02-14T19:55:17.111Z,10.50
2018-02-14T19:57:44.579Z,10.43
2018-02-14T20:00:12.090Z,10.57
2018-02-14T20:02:40.344Z,11.03
2018-02-14T20:05:08.823Z,9.90
2018-02-14T20:07:36.366Z,9.60
2018-02-14T20:10:03.838Z,9.50
2018-02-14T20:12:31.464Z,11.73
2018-02-14T20:14:58.941Z,10.20
2018-02-14T20:17:26.410Z,11.00
2018-02-14T20:19:53.929Z,9.27
2018-02-14T20:22:21.394Z,9.10
2018-02-14T20:24:48.883Z,9.90
2018-02-14T20:27:17.270Z,9.43
2018-02-14T20:29:44.814Z,9.77
2018-02-14T20:32:12.369Z,9.23
2018-02-14T20:34:39.829Z,7.60
2018-02-14T20:37:07.359Z,9.60
2018-02-14T20:39:34.822Z,9.00
2018-02-14T20:42:02.317Z,9.43
2018-02-14T20:44:29.775Z,8.47
2018-02-14T20:46:57.928Z,9.20
2018-02-14T20:49:25.435Z,9.57
2018-02-14T20:51:52.910Z,10.27
2018-02-14T20:54:20.404Z,9.40
2018-02-14T20:56:48.638Z,10.20
2018-02-14T20:59:16.105Z,8.80
2018-02-14T21:01:43.597Z,9.33
2018-02-14T21:04:11.856Z,8.63
2018-02-14T21:06:39.396Z,8.90
2018-02-14T21:09:06.882Z,9.10
2018-02-14T21:11:34.378Z,9.73
2018-02-14T21:14:01.855Z,8.97
2018-02-14T21:16:29.331Z,7.37
2018-02-14T21:18:57.101Z,10.33
2018-02-14T21:21:24.566Z,8.93
2018-02-14T21:23:52.320Z,9.23
2018-02-14T21:26:19.777Z,8.87
2018-02-14T21:28:47.259Z,8.43
2018-02-14T21:31:14.733Z,7.50
2018-02-14T21:33:43.084Z,9.17
2018-02-14T21:36:10.542Z,8.47
2018-02-14T21:38:38.029Z,9.33
2018-02-14T21:41:06.246Z,7.30
2018-02-14T21:43:33.710Z,9.30
2018-02-14T21:46:01.190Z,7.40
2018-02-14T21:48:28.650Z,8.70
2018-02-14T21:50:56.120Z,7.77
2018-02-14T21:53:23.581Z,8.10
2018-02-14T21:55:51.817Z,6.50
2018-02-14T21:58:20.095Z,6.60
2018-02-14T22:00:47.570Z,7.07
2018-02-14T22:03:15.039Z,7.50
2018-02-14T22:05:42.530Z,6.80
2018-02-14T22:08:09.990Z,6.27
2018-02-14T22:10:37.484Z,8.30
2018-02-14T22:13:05.085Z,6.83
2018-02-14T22:15:32.547Z,7.20
2018-02-14T22:18:00.017Z,7.33
2018-02-14T22:20:28.263Z,6.57
2018-02-14T22:22:56.510Z,6.70
2018-02-14T22:25:23.995Z,8.27
2018-02-14T22:27:51.510Z,6.77
2018-02-14T22:30:18.973Z,8.17
2018-02-14T22:32:46.443Z,7.10
2018-02-14T22:35:13.894Z,7.70
2018-02-14T22:37:41.362Z,6.63
2018-02-14T22:40:08.814Z,6.47
2018-02-14T22:42:36.321Z,7.23
2018-02-14T22:45:03.785Z,6.70
2018-02-14T22:47:32.009Z,7.43
2018-02-14T22:49:59.475Z,6.60
2018-02-14T22:52:26.945Z,6.67
2018-02-14T22:54:57.255Z,7.53
2018-02-14T22:57:25.097Z,8.07
2018-02-14T22:59:52.718Z,7.60
2018-02-14T23:02:20.976Z,7.73
2018-02-14T23:04:48.441Z,6.77
2018-02-14T23:07:15.922Z,8.23
2018-02-14T23:09:43.386Z,8.57
2018-02-14T23:12:11.607Z,9.07
2018-02-14T23:14:39.074Z,7.00
2018-02-14T23:17:06.714Z,8.90
2018-02-14T23:19:34.174Z,8.30
2018-02-14T23:22:01.641Z,7.97
2018-02-14T23:24:29.098Z,8.43
2018-02-14T23:26:56.570Z,9.30
2018-02-14T23:29:24.025Z,8.80
2018-02-14T23:31:51.509Z,9.07
2018-02-14T23:34:19.742Z,9.50
2018-02-14T23:36:47.222Z,9.37
2018-02-14T23:39:14.683Z,7.60
2018-02-14T23:41:42.190Z,10.30
2018-02-14T23:44:09.698Z,8.90
2018-02-14T23:46:37.154Z,9.70
2018-02-14T23:49:05.105Z,9.37
2018-02-14T23:51:33.529Z,9.40
2018-02-14T23:54:01.366Z,9.40
2018-02-14T23:56:29.423Z,10.60
2018-02-14T23:58:57.291Z,10.00
